Aviation Digital Data Service (ADDS)

Output produced by METARs form (1942 UTC 18 June 2019)
found at http://www.aviationweather.gov/metar/data/
 
KAFO 181935Z AUTO 00000KT 10SM CLR 19/08 A3012 RMK AO2 LTG DSNT E AND NW
K46U 181940Z 00000KT 10SM FEW060 SCT075 BKN095 17/11 A3013 RMK A01 OBSERVE RT TRAFFIC RWY 13 WATERFOWL/ANIMALS ON OR IN THE VICINITY OF THE RUNWAY
KBPI 181853Z AUTO 21008KT 10SM BKN070 BKN090 18/06 A3016 RMK AO2 SLP133 T01780061 $
KBPI 181731Z 1818/1918 VRB06KT P6SM VCSH SCT060 BKN120 
     FM182000 32014G24KT P6SM VCSH SCT050 BKN120 
     FM190300 34009KT P6SM SCT040 BKN120 
     FM190700 VRB05KT P6SM SCT040 SCT120
       
KBYG 181853Z AUTO 26006KT 10SM FEW120 21/08 A3002 RMK AO2 WSHFT 1749 RAB1755E17 SLP124 P0001 T02060083
KCPR 181931Z 21007KT 10SM VCTS -RA FEW055 BKN090 OVC100 16/13 A3002 RMK AO2 LTG DSNT N AND S AND SW RAB09 P0000 T01610128
KCPR 181731Z 1818/1918 26008KT P6SM VCSH SCT060 SCT100 
     FM182000 28008KT P6SM VCTS SCT060CB BKN100 
     FM190200 35008KT P6SM SCT060 BKN080 
     FM190500 36006KT P6SM VCSH BKN060 
     FM190900 35006KT P6SM SCT030 SCT060
       
KCYS 181938Z 15005KT 10SM TS OVC025 15/11 A3010 RMK AO2 LTG DSNT NW TSB32 T01500111 $
KCYS 181724Z 1818/1918 13008KT P6SM VCTS BKN020 BKN050CB 
     TEMPO 1819/1823 VRB15G25KT 3SM TSRA BKN020CB 
     FM190000 21010KT P6SM -RA SCT040 BKN060 
     FM190800 25007KT P6SM BKN120 AMD NOT SKED
       
KCOD 181856Z AUTO VRB05KT 10SM BKN110 21/10 A3002 RMK AO2 SLP131 T02110100
KCOD 181731Z 1818/1918 VRB04KT P6SM SCT080 
     FM182300 29008KT P6SM VCTS SCT050CB SCT100 
     FM190400 29007KT P6SM VCSH SCT060 BKN100 
     FM190800 VRB05KT P6SM SCT060 SCT150 AMD LTD TO CLD VIS AND WIND
       
KU68 181935Z AUTO 00000KT 10SM CLR 25/ A2995 RMK AO2 LTG DSNT SE AND S
KDWX 181935Z AUTO 19011G14KT 10SM VCTS SCT050 SCT065 SCT075 20/07 A3014 RMK AO2 LTG DSNT N E AND S T02030066
KDGW 181938Z AUTO 00000KT 10SM 17/14 A3002 RMK AO2 LTG DSNT N-E RAB1858RAEMM TSE20 P0005 T01720139 $
KDUB 181935Z AUTO 32016G23KT 10SM CLR 19/00 A3012 RMK AO2
KEVW 181853Z AUTO 24011G21KT 10SM FEW110 19/07 A3020 RMK AO2 RAB10E19 SLP147 P0000 T01940067
KEVW 181728Z 1818/1918 25011KT P6SM FEW060 SCT120 
     FM181900 27014G22KT P6SM SCT060 SCT120 
     FM190100 27010KT P6SM FEW070 SCT150 
     FM190400 22007KT P6SM SCT200
       
KGCC 181903Z AUTO 07015G23KT 10SM VCTS SCT100 21/13 A2998 RMK AO2 LTG DSNT E-S TSE1857 T02060128
KGCC 181720Z 1818/1918 18010KT P6SM BKN040 
     TEMPO 1818/1822 -TSRA BKN050CB 
     FM182200 15008KT P6SM VCTS BKN050CB 
     FM190400 24008KT P6SM BKN150
       
KJAC 181856Z 24007KT 10SM BKN065 BKN090 19/07 A3014 RMK AO2 SLP170 T01890072
KJAC 181731Z 1818/1918 VRB05KT P6SM SCT110 
     FM182000 22009KT P6SM SCT040 BKN120 
     FM190100 VRB04KT P6SM VCSH SCT040 BKN080 
     FM190700 36006KT P6SM SCT050 SCT110 AMD LTD TO CLD VIS AND WIND
       
KEMM 181935Z AUTO 26014G23KT 10SM CLR 18/03 A3019 RMK AO2
KLND 181853Z AUTO 14007KT 10SM FEW110 19/09 A3004 RMK AO2 LTG DSNT S SLP125 T01890094
KLND 181731Z 1818/1918 VRB04KT P6SM SCT110 
     FM182000 28008KT P6SM VCTS SCT060CB BKN120 
     FM190200 35006KT P6SM VCSH SCT060 BKN120 
     FM190800 VRB05KT P6SM SCT070 SCT150
       
KLAR 181927Z AUTO 24004KT 4SM VCTS -RA FEW035 OVC043 10/07 A3015 RMK AO2 WSHFT 1840 LTG DSNT E-SW TSB00E15 P0006 T01000072
KLAR 181847Z 1819/1918 01009KT 3SM -TSRA BKN025 OVC040CB 
     FM190000 23010KT P6SM VCSH BKN050 
     FM190800 23007KT P6SM BKN080
       
KECS 181935Z AUTO 15011G21KT 10SM CLR 22/06 A2999 RMK AO2 LTG DSNT SW AND NW
K82V 181935Z AUTO 12007KT 10SM BKN020 BKN026 OVC032 17/12 A3006 RMK AO2 LTG DSNT S AND W
KPNA 181935Z AUTO 30011G22KT 10SM SCT070 20/00 A3015 RMK AO2
KPNA 181731Z 1818/1918 32010KT P6SM VCSH SCT110 
     FM182200 30016G24KT P6SM VCSH SCT050 BKN120 
     FM190400 30016G22KT P6SM SCT040 BKN120 
     FM190700 VRB04KT P6SM SCT040 SCT120 AMD LTD TO CLD VIS AND WIND
       
KPOY 181935Z AUTO 29005KT 10SM BKN110 22/02 A3000 RMK AO2 LTG DSNT SE
KRWL 181853Z AUTO 28011KT 10SM SCT036 SCT047 BKN095 19/08 A3012 RMK AO2 LTG DSNT ALQDS SLP121 T01890083
KRWL 181724Z 1818/1918 VRB04KT P6SM VCSH SCT030 BKN100 
     FM182000 28010G20KT P6SM VCTS BKN050CB 
     FM190000 29010KT P6SM VCSH SCT050 BKN100 
     FM190600 26007KT P6SM OVC100
       
KRIW 181853Z AUTO VRB04G16KT 10SM CLR 23/07 A3004 RMK AO2 SLP117 T02280067
KRIW 181731Z 1818/1918 VRB04KT P6SM SCT070 SCT100 
     FM182100 26010KT P6SM VCTS SCT060CB BKN120 
     FM190100 34011KT P6SM FEW060 BKN100 
     FM190500 35007KT P6SM VCSH BKN070 
     FM191000 26005KT P6SM SCT100
       
KRKS 181854Z AUTO 28007G14KT 10SM FEW055 18/04 A3014 RMK AO2 SLP144 T01830039 TSNO
KRKS 181731Z 1818/1918 26008KT P6SM SCT030 SCT090 
     FM181900 29014G24KT P6SM BKN080 
     FM182300 28015G25KT P6SM VCSH BKN060 BKN100 
     FM190300 28012KT P6SM SCT060 BKN100 
     FM190700 25009KT P6SM SCT150
       
KSAA 181935Z AUTO 26006G14KT 10SM TS SCT060 BKN090 19/05 A3013 RMK AO2 LTG DSNT ALQS
KSHR 181853Z AUTO 27007KT 10SM CLR 23/10 A2997 RMK AO2 LTG DSNT W AND NW SLP126 T02280100
KSHR 181736Z 1818/1918 26006KT P6SM VCTS BKN100CB 
     FM182100 30008KT P6SM VCTS BKN070CB 
     FM190400 27006KT P6SM BKN100 
     FM191200 33004KT P6SM SCT100
       
KTOR 181853Z AUTO 15008KT 10SM FEW024 SCT029 OVC035 19/13 A3001 RMK AO2 SLP129 T01940133
KEAN 181935Z AUTO 11004KT 10SM -VCTSRA SCT029 SCT040 BKN070 19/12 A3002 RMK AO2 LTG DSNT ALQS T01920124
KWRL 181853Z AUTO 00000KT 10SM CLR 24/09 A2997 RMK AO2 SLP114 T02390089
KWRL 181731Z 1818/1918 VRB04KT P6SM SCT110 
     FM181900 35005KT P6SM SCT060 SCT110 
     FM182300 35005KT P6SM VCTS SCT060CB BKN120 
     FM190600 34006KT P6SM SCT070 BKN150 
     FM190900 VRB05KT P6SM SCT180